sensor_id;sensor_type;location;lat;lon;timestamp;P1;durP1;ratioP1;P2;durP2;ratioP2
3267;SDS011;1646;52.450;13.326;2023-09-12T00:00:06;20.20;;;15.70;;
3267;SDS011;1646;52.450;13.326;2023-09-12T00:05:09;18.90;;;14.00;;
3267;SDS011;1646;52.450;13.326;2023-09-12T00:10:08;18.50;;;14.43;;
3267;SDS011;1646;52.450;13.326;2023-09-12T00:15:07;23.80;;;15.60;;
3267;SDS011;1646;52.450;13.326;2023-09-12T00:20:06;23.33;;;14.30;;
3267;SDS011;1646;52.450;13.326;2023-09-12T00:25:07;19.53;;;15.23;;
3267;SDS011;1646;52.450;13.326;2023-09-12T00:30:06;22.97;;;14.60;;
3267;SDS011;1646;52.450;13.326;2023-09-12T00:35:05;20.23;;;14.10;;
3267;SDS011;1646;52.450;13.326;2023-09-12T00:40:04;20.07;;;14.47;;
3267;SDS011;1646;52.450;13.326;2023-09-12T00:45:05;18.80;;;15.20;;
3267;SDS011;1646;52.450;13.326;2023-09-12T00:50:05;21.00;;;14.10;;
3267;SDS011;1646;52.450;13.326;2023-09-12T00:55:06;22.27;;;14.73;;
3267;SDS011;1646;52.450;13.326;2023-09-12T01:00:06;19.97;;;14.47;;
3267;SDS011;1646;52.450;13.326;2023-09-12T01:05:08;17.57;;;13.90;;
3267;SDS011;1646;52.450;13.326;2023-09-12T01:10:09;18.90;;;13.60;;
3267;SDS011;1646;52.450;13.326;2023-09-12T01:15:08;21.77;;;13.73;;
3267;SDS011;1646;52.450;13.326;2023-09-12T01:20:11;19.43;;;13.43;;
3267;SDS011;1646;52.450;13.326;2023-09-12T01:31:01;16.87;;;13.53;;
3267;SDS011;1646;52.450;13.326;2023-09-12T01:36:01;18.77;;;13.07;;
3267;SDS011;1646;52.450;13.326;2023-09-12T01:41:00;19.00;;;12.57;;
3267;SDS011;1646;52.450;13.326;2023-09-12T01:45:59;14.60;;;12.20;;
3267;SDS011;1646;52.450;13.326;2023-09-12T01:51:00;20.90;;;13.03;;
3267;SDS011;1646;52.450;13.326;2023-09-12T01:56:00;17.63;;;12.10;;
3267;SDS011;1646;52.450;13.326;2023-09-12T02:00:58;15.47;;;13.00;;
3267;SDS011;1646;52.450;13.326;2023-09-12T02:05:58;16.30;;;13.37;;
3267;SDS011;1646;52.450;13.326;2023-09-12T02:10:56;17.07;;;12.73;;
3267;SDS011;1646;52.450;13.326;2023-09-12T02:15:58;15.43;;;12.80;;
3267;SDS011;1646;52.450;13.326;2023-09-12T02:20:59;18.33;;;13.47;;
3267;SDS011;1646;52.450;13.326;2023-09-12T02:25:57;15.37;;;12.40;;
3267;SDS011;1646;52.450;13.326;2023-09-12T02:30:56;21.20;;;12.50;;
3267;SDS011;1646;52.450;13.326;2023-09-12T02:35:55;17.33;;;12.40;;
3267;SDS011;1646;52.450;13.326;2023-09-12T02:40:54;18.10;;;13.23;;
3267;SDS011;1646;52.450;13.326;2023-09-12T02:45:53;15.40;;;12.20;;
3267;SDS011;1646;52.450;13.326;2023-09-12T02:50:51;15.47;;;12.50;;
3267;SDS011;1646;52.450;13.326;2023-09-12T02:55:51;16.43;;;12.87;;
3267;SDS011;1646;52.450;13.326;2023-09-12T03:00:52;14.53;;;12.80;;
3267;SDS011;1646;52.450;13.326;2023-09-12T03:05:56;13.10;;;11.40;;
3267;SDS011;1646;52.450;13.326;2023-09-12T03:10:55;21.50;;;13.83;;
3267;SDS011;1646;52.450;13.326;2023-09-12T03:15:56;16.03;;;12.67;;
3267;SDS011;1646;52.450;13.326;2023-09-12T03:20:54;18.10;;;12.93;;
3267;SDS011;1646;52.450;13.326;2023-09-12T03:25:52;16.30;;;12.50;;
3267;SDS011;1646;52.450;13.326;2023-09-12T03:30:51;14.50;;;12.20;;
3267;SDS011;1646;52.450;13.326;2023-09-12T03:35:51;16.17;;;12.30;;
3267;SDS011;1646;52.450;13.326;2023-09-12T03:40:51;13.53;;;12.00;;
3267;SDS011;1646;52.450;13.326;2023-09-12T03:45:49;15.10;;;12.70;;
3267;SDS011;1646;52.450;13.326;2023-09-12T03:50:48;22.40;;;14.07;;
3267;SDS011;1646;52.450;13.326;2023-09-12T03:55:48;17.27;;;14.47;;
3267;SDS011;1646;52.450;13.326;2023-09-12T04:00:46;16.77;;;14.00;;
3267;SDS011;1646;52.450;13.326;2023-09-12T04:05:45;14.30;;;12.23;;
3267;SDS011;1646;52.450;13.326;2023-09-12T04:10:44;14.93;;;12.60;;
3267;SDS011;1646;52.450;13.326;2023-09-12T04:15:44;15.10;;;12.10;;
3267;SDS011;1646;52.450;13.326;2023-09-12T04:20:42;13.77;;;11.93;;
3267;SDS011;1646;52.450;13.326;2023-09-12T04:25:41;16.50;;;12.33;;
3267;SDS011;1646;52.450;13.326;2023-09-12T04:30:41;17.27;;;13.57;;
3267;SDS011;1646;52.450;13.326;2023-09-12T04:35:44;17.40;;;13.07;;
3267;SDS011;1646;52.450;13.326;2023-09-12T04:40:43;18.50;;;14.10;;
3267;SDS011;1646;52.450;13.326;2023-09-12T04:45:50;17.70;;;13.50;;
3267;SDS011;1646;52.450;13.326;2023-09-12T04:50:50;17.37;;;13.07;;
3267;SDS011;1646;52.450;13.326;2023-09-12T04:55:48;17.10;;;13.67;;
3267;SDS011;1646;52.450;13.326;2023-09-12T05:00:49;17.97;;;13.20;;
3267;SDS011;1646;52.450;13.326;2023-09-12T05:05:49;20.17;;;12.30;;
3267;SDS011;1646;52.450;13.326;2023-09-12T05:10:48;17.73;;;12.17;;
3267;SDS011;1646;52.450;13.326;2023-09-12T05:15:47;14.77;;;11.87;;
3267;SDS011;1646;52.450;13.326;2023-09-12T05:20:45;17.17;;;12.53;;
3267;SDS011;1646;52.450;13.326;2023-09-12T05:25:45;18.23;;;12.30;;
3267;SDS011;1646;52.450;13.326;2023-09-12T05:30:46;13.30;;;11.63;;
3267;SDS011;1646;52.450;13.326;2023-09-12T05:35:44;14.93;;;12.50;;
3267;SDS011;1646;52.450;13.326;2023-09-12T05:40:43;25.10;;;13.30;;
3267;SDS011;1646;52.450;13.326;2023-09-12T05:45:47;17.33;;;12.60;;
3267;SDS011;1646;52.450;13.326;2023-09-12T05:50:46;20.70;;;12.93;;
3267;SDS011;1646;52.450;13.326;2023-09-12T05:55:46;18.80;;;12.80;;
3267;SDS011;1646;52.450;13.326;2023-09-12T06:00:44;19.23;;;12.70;;
3267;SDS011;1646;52.450;13.326;2023-09-12T06:05:44;24.37;;;13.40;;
3267;SDS011;1646;52.450;13.326;2023-09-12T06:10:42;19.20;;;12.97;;
3267;SDS011;1646;52.450;13.326;2023-09-12T06:15:42;15.73;;;12.43;;
3267;SDS011;1646;52.450;13.326;2023-09-12T06:20:40;19.10;;;11.10;;
3267;SDS011;1646;52.450;13.326;2023-09-12T06:25:39;14.83;;;10.83;;
3267;SDS011;1646;52.450;13.326;2023-09-12T06:30:37;19.60;;;11.50;;
3267;SDS011;1646;52.450;13.326;2023-09-12T06:35:37;14.80;;;10.37;;
3267;SDS011;1646;52.450;13.326;2023-09-12T06:40:38;17.23;;;9.80;;
3267;SDS011;1646;52.450;13.326;2023-09-12T06:45:36;23.60;;;10.10;;
3267;SDS011;1646;52.450;13.326;2023-09-12T06:50:35;12.10;;;10.27;;
3267;SDS011;1646;52.450;13.326;2023-09-12T06:55:35;25.40;;;11.27;;
3267;SDS011;1646;52.450;13.326;2023-09-12T07:00:34;16.23;;;9.87;;
3267;SDS011;1646;52.450;13.326;2023-09-12T07:05:35;9.43;;;8.43;;
3267;SDS011;1646;52.450;13.326;2023-09-12T07:10:36;14.03;;;9.67;;
3267;SDS011;1646;52.450;13.326;2023-09-12T07:15:35;17.90;;;9.80;;
3267;SDS011;1646;52.450;13.326;2023-09-12T07:20:33;17.70;;;9.10;;
3267;SDS011;1646;52.450;13.326;2023-09-12T07:25:37;16.07;;;9.00;;
3267;SDS011;1646;52.450;13.326;2023-09-12T07:30:36;21.73;;;9.27;;
3267;SDS011;1646;52.450;13.326;2023-09-12T07:35:35;16.13;;;8.77;;
3267;SDS011;1646;52.450;13.326;2023-09-12T07:40:38;18.80;;;8.80;;
3267;SDS011;1646;52.450;13.326;2023-09-12T07:45:36;20.30;;;9.27;;
3267;SDS011;1646;52.450;13.326;2023-09-12T07:50:34;14.27;;;7.77;;
3267;SDS011;1646;52.450;13.326;2023-09-12T07:55:37;17.60;;;8.77;;
3267;SDS011;1646;52.450;13.326;2023-09-12T08:00:42;21.33;;;9.37;;
3267;SDS011;1646;52.450;13.326;2023-09-12T08:05:41;20.60;;;8.90;;
3267;SDS011;1646;52.450;13.326;2023-09-12T08:10:40;18.53;;;7.67;;
3267;SDS011;1646;52.450;13.326;2023-09-12T08:15:41;15.20;;;7.03;;
3267;SDS011;1646;52.450;13.326;2023-09-12T08:20:40;18.80;;;7.53;;
3267;SDS011;1646;52.450;13.326;2023-09-12T08:25:39;15.73;;;6.83;;
3267;SDS011;1646;52.450;13.326;2023-09-12T08:30:38;18.30;;;7.10;;
3267;SDS011;1646;52.450;13.326;2023-09-12T08:35:37;17.73;;;6.50;;
3267;SDS011;1646;52.450;13.326;2023-09-12T08:40:35;14.30;;;5.57;;
3267;SDS011;1646;52.450;13.326;2023-09-12T08:45:35;14.50;;;5.73;;
3267;SDS011;1646;52.450;13.326;2023-09-12T08:50:34;22.00;;;6.00;;
3267;SDS011;1646;52.450;13.326;2023-09-12T08:55:33;18.67;;;7.00;;
3267;SDS011;1646;52.450;13.326;2023-09-12T09:00:33;17.37;;;5.60;;
3267;SDS011;1646;52.450;13.326;2023-09-12T09:05:34;14.53;;;5.10;;
3267;SDS011;1646;52.450;13.326;2023-09-12T09:10:36;13.00;;;6.10;;
3267;SDS011;1646;52.450;13.326;2023-09-12T09:15:48;21.83;;;6.43;;
3267;SDS011;1646;52.450;13.326;2023-09-12T09:20:46;11.53;;;5.30;;
3267;SDS011;1646;52.450;13.326;2023-09-12T09:25:51;13.60;;;5.87;;
3267;SDS011;1646;52.450;13.326;2023-09-12T09:30:52;12.97;;;5.77;;
3267;SDS011;1646;52.450;13.326;2023-09-12T09:35:51;20.83;;;7.20;;
3267;SDS011;1646;52.450;13.326;2023-09-12T09:41:00;21.47;;;7.33;;
3267;SDS011;1646;52.450;13.326;2023-09-12T09:46:02;22.40;;;8.03;;
3267;SDS011;1646;52.450;13.326;2023-09-12T09:51:01;22.63;;;8.83;;
3267;SDS011;1646;52.450;13.326;2023-09-12T09:56:10;16.63;;;8.97;;
3267;SDS011;1646;52.450;13.326;2023-09-12T10:01:10;18.47;;;8.10;;
3267;SDS011;1646;52.450;13.326;2023-09-12T10:06:11;19.00;;;8.33;;
3267;SDS011;1646;52.450;13.326;2023-09-12T10:11:14;23.83;;;8.30;;
3267;SDS011;1646;52.450;13.326;2023-09-12T10:16:14;18.03;;;8.90;;
3267;SDS011;1646;52.450;13.326;2023-09-12T10:21:15;20.27;;;8.40;;
3267;SDS011;1646;52.450;13.326;2023-09-12T10:26:20;19.40;;;8.17;;
3267;SDS011;1646;52.450;13.326;2023-09-12T10:31:21;17.80;;;8.13;;
3267;SDS011;1646;52.450;13.326;2023-09-12T10:36:22;16.03;;;7.60;;
3267;SDS011;1646;52.450;13.326;2023-09-12T10:41:23;14.87;;;7.40;;
3267;SDS011;1646;52.450;13.326;2023-09-12T10:46:23;15.57;;;7.57;;
3267;SDS011;1646;52.450;13.326;2023-09-12T10:51:24;19.57;;;8.43;;
3267;SDS011;1646;52.450;13.326;2023-09-12T10:56:25;23.60;;;8.70;;
3267;SDS011;1646;52.450;13.326;2023-09-12T11:01:30;22.33;;;7.20;;
3267;SDS011;1646;52.450;13.326;2023-09-12T11:06:30;21.13;;;7.57;;
3267;SDS011;1646;52.450;13.326;2023-09-12T11:11:29;12.63;;;7.90;;
3267;SDS011;1646;52.450;13.326;2023-09-12T11:16:27;17.27;;;7.40;;
3267;SDS011;1646;52.450;13.326;2023-09-12T11:21:32;22.47;;;8.13;;
3267;SDS011;1646;52.450;13.326;2023-09-12T11:26:31;23.43;;;8.43;;
3267;SDS011;1646;52.450;13.326;2023-09-12T11:31:29;11.20;;;7.20;;
3267;SDS011;1646;52.450;13.326;2023-09-12T11:36:28;15.63;;;8.37;;
3267;SDS011;1646;52.450;13.326;2023-09-12T11:41:39;17.23;;;8.13;;
3267;SDS011;1646;52.450;13.326;2023-09-12T11:46:38;11.50;;;6.70;;
3267;SDS011;1646;52.450;13.326;2023-09-12T11:51:38;18.57;;;7.17;;
3267;SDS011;1646;52.450;13.326;2023-09-12T11:56:47;14.43;;;7.03;;
3267;SDS011;1646;52.450;13.326;2023-09-12T12:01:47;12.17;;;5.97;;
3267;SDS011;1646;52.450;13.326;2023-09-12T12:06:47;13.40;;;6.70;;
3267;SDS011;1646;52.450;13.326;2023-09-12T12:11:47;9.53;;;6.43;;
3267;SDS011;1646;52.450;13.326;2023-09-12T12:16:46;18.07;;;6.50;;
3267;SDS011;1646;52.450;13.326;2023-09-12T12:21:44;13.93;;;6.63;;
3267;SDS011;1646;52.450;13.326;2023-09-12T12:26:43;12.33;;;6.37;;
3267;SDS011;1646;52.450;13.326;2023-09-12T12:31:43;12.03;;;6.07;;
3267;SDS011;1646;52.450;13.326;2023-09-12T12:36:42;8.33;;;5.50;;
3267;SDS011;1646;52.450;13.326;2023-09-12T12:41:53;9.73;;;5.87;;
3267;SDS011;1646;52.450;13.326;2023-09-12T12:46:54;10.13;;;6.37;;
3267;SDS011;1646;52.450;13.326;2023-09-12T12:51:52;12.97;;;6.50;;
3267;SDS011;1646;52.450;13.326;2023-09-12T12:56:52;15.37;;;6.43;;
3267;SDS011;1646;52.450;13.326;2023-09-12T13:01:51;8.73;;;5.27;;
3267;SDS011;1646;52.450;13.326;2023-09-12T13:06:51;15.23;;;6.90;;
3267;SDS011;1646;52.450;13.326;2023-09-12T13:11:50;11.20;;;6.17;;
3267;SDS011;1646;52.450;13.326;2023-09-12T13:16:48;10.50;;;6.27;;
3267;SDS011;1646;52.450;13.326;2023-09-12T13:21:47;15.10;;;5.97;;
3267;SDS011;1646;52.450;13.326;2023-09-12T13:26:46;11.37;;;6.50;;
3267;SDS011;1646;52.450;13.326;2023-09-12T13:31:45;21.80;;;6.80;;
3267;SDS011;1646;52.450;13.326;2023-09-12T13:36:43;11.17;;;5.50;;
3267;SDS011;1646;52.450;13.326;2023-09-12T13:41:51;24.90;;;7.10;;
3267;SDS011;1646;52.450;13.326;2023-09-12T13:46:54;18.93;;;6.77;;
3267;SDS011;1646;52.450;13.326;2023-09-12T13:51:52;12.90;;;6.23;;
3267;SDS011;1646;52.450;13.326;2023-09-12T13:56:53;17.27;;;6.90;;
3267;SDS011;1646;52.450;13.326;2023-09-12T14:01:51;22.70;;;6.67;;
3267;SDS011;1646;52.450;13.326;2023-09-12T14:06:50;12.20;;;6.13;;
3267;SDS011;1646;52.450;13.326;2023-09-12T14:11:50;15.57;;;6.77;;
3267;SDS011;1646;52.450;13.326;2023-09-12T14:16:51;11.07;;;6.37;;
3267;SDS011;1646;52.450;13.326;2023-09-12T14:21:50;22.20;;;6.90;;
3267;SDS011;1646;52.450;13.326;2023-09-12T14:26:50;13.83;;;5.80;;
3267;SDS011;1646;52.450;13.326;2023-09-12T14:31:48;14.10;;;6.70;;
3267;SDS011;1646;52.450;13.326;2023-09-12T14:36:54;20.60;;;6.53;;
3267;SDS011;1646;52.450;13.326;2023-09-12T14:41:53;11.83;;;6.50;;
3267;SDS011;1646;52.450;13.326;2023-09-12T14:46:54;11.83;;;6.40;;
3267;SDS011;1646;52.450;13.326;2023-09-12T14:51:52;7.80;;;3.80;;
3267;SDS011;1646;52.450;13.326;2023-09-12T14:56:51;5.23;;;3.63;;
3267;SDS011;1646;52.450;13.326;2023-09-12T15:01:49;3.50;;;3.10;;
3267;SDS011;1646;52.450;13.326;2023-09-12T15:06:49;8.43;;;3.80;;
3267;SDS011;1646;52.450;13.326;2023-09-12T15:11:48;4.50;;;3.10;;
3267;SDS011;1646;52.450;13.326;2023-09-12T15:16:46;4.40;;;3.10;;
3267;SDS011;1646;52.450;13.326;2023-09-12T15:21:45;5.20;;;2.87;;
3267;SDS011;1646;52.450;13.326;2023-09-12T15:26:44;6.10;;;3.10;;
3267;SDS011;1646;52.450;13.326;2023-09-12T15:31:43;7.10;;;3.37;;
3267;SDS011;1646;52.450;13.326;2023-09-12T15:36:43;4.03;;;3.20;;
3267;SDS011;1646;52.450;13.326;2023-09-12T15:41:42;6.30;;;3.67;;
3267;SDS011;1646;52.450;13.326;2023-09-12T15:46:42;6.20;;;3.20;;
3267;SDS011;1646;52.450;13.326;2023-09-12T15:51:40;4.80;;;2.93;;
3267;SDS011;1646;52.450;13.326;2023-09-12T15:56:39;4.13;;;3.10;;
3267;SDS011;1646;52.450;13.326;2023-09-12T16:01:39;5.43;;;2.87;;
3267;SDS011;1646;52.450;13.326;2023-09-12T16:06:38;3.60;;;2.30;;
3267;SDS011;1646;52.450;13.326;2023-09-12T16:11:36;5.30;;;2.53;;
3267;SDS011;1646;52.450;13.326;2023-09-12T16:16:34;2.37;;;2.17;;
3267;SDS011;1646;52.450;13.326;2023-09-12T16:21:34;4.60;;;2.17;;
3267;SDS011;1646;52.450;13.326;2023-09-12T16:26:32;2.63;;;2.40;;
3267;SDS011;1646;52.450;13.326;2023-09-12T16:31:31;1.97;;;1.87;;
3267;SDS011;1646;52.450;13.326;2023-09-12T16:36:30;3.33;;;2.00;;
3267;SDS011;1646;52.450;13.326;2023-09-12T16:41:30;2.60;;;2.17;;
3267;SDS011;1646;52.450;13.326;2023-09-12T16:46:30;2.30;;;1.80;;
3267;SDS011;1646;52.450;13.326;2023-09-12T16:51:28;2.00;;;1.70;;
3267;SDS011;1646;52.450;13.326;2023-09-12T16:56:28;3.13;;;1.90;;
3267;SDS011;1646;52.450;13.326;2023-09-12T17:01:29;4.23;;;2.00;;
3267;SDS011;1646;52.450;13.326;2023-09-12T17:06:28;3.17;;;1.77;;
3267;SDS011;1646;52.450;13.326;2023-09-12T17:11:27;2.53;;;2.33;;
3267;SDS011;1646;52.450;13.326;2023-09-12T17:16:27;2.07;;;1.87;;
3267;SDS011;1646;52.450;13.326;2023-09-12T17:21:25;2.43;;;2.13;;
3267;SDS011;1646;52.450;13.326;2023-09-12T17:26:23;3.77;;;1.90;;
3267;SDS011;1646;52.450;13.326;2023-09-12T17:31:22;4.30;;;2.77;;
3267;SDS011;1646;52.450;13.326;2023-09-12T17:36:21;3.73;;;2.30;;
3267;SDS011;1646;52.450;13.326;2023-09-12T17:41:21;8.17;;;3.10;;
3267;SDS011;1646;52.450;13.326;2023-09-12T17:46:19;7.83;;;2.50;;
3267;SDS011;1646;52.450;13.326;2023-09-12T17:51:18;6.10;;;3.00;;
3267;SDS011;1646;52.450;13.326;2023-09-12T17:56:17;4.10;;;2.80;;
3267;SDS011;1646;52.450;13.326;2023-09-12T18:01:15;3.13;;;2.83;;
3267;SDS011;1646;52.450;13.326;2023-09-12T18:06:16;6.33;;;3.17;;
3267;SDS011;1646;52.450;13.326;2023-09-12T18:11:18;3.37;;;3.07;;
3267;SDS011;1646;52.450;13.326;2023-09-12T18:16:16;5.73;;;3.30;;
3267;SDS011;1646;52.450;13.326;2023-09-12T18:21:14;4.00;;;3.30;;
3267;SDS011;1646;52.450;13.326;2023-09-12T18:26:13;3.67;;;3.37;;
3267;SDS011;1646;52.450;13.326;2023-09-12T18:31:14;5.23;;;3.43;;
3267;SDS011;1646;52.450;13.326;2023-09-12T18:36:13;4.80;;;3.20;;
3267;SDS011;1646;52.450;13.326;2023-09-12T18:41:11;4.93;;;3.50;;
3267;SDS011;1646;52.450;13.326;2023-09-12T18:46:12;4.40;;;3.00;;
3267;SDS011;1646;52.450;13.326;2023-09-12T18:51:11;4.90;;;3.40;;
3267;SDS011;1646;52.450;13.326;2023-09-12T18:56:09;3.27;;;2.80;;
3267;SDS011;1646;52.450;13.326;2023-09-12T19:01:07;4.20;;;2.73;;
3267;SDS011;1646;52.450;13.326;2023-09-12T19:06:08;5.20;;;3.00;;
3267;SDS011;1646;52.450;13.326;2023-09-12T19:11:06;4.60;;;3.27;;
3267;SDS011;1646;52.450;13.326;2023-09-12T19:16:05;5.67;;;3.33;;
3267;SDS011;1646;52.450;13.326;2023-09-12T19:21:04;3.47;;;3.17;;
3267;SDS011;1646;52.450;13.326;2023-09-12T19:26:04;3.47;;;3.00;;
3267;SDS011;1646;52.450;13.326;2023-09-12T19:31:02;4.83;;;3.07;;
3267;SDS011;1646;52.450;13.326;2023-09-12T19:36:01;3.43;;;3.13;;
3267;SDS011;1646;52.450;13.326;2023-09-12T19:41:00;3.50;;;3.20;;
3267;SDS011;1646;52.450;13.326;2023-09-12T19:46:02;5.37;;;3.37;;
3267;SDS011;1646;52.450;13.326;2023-09-12T19:51:01;3.53;;;3.23;;
3267;SDS011;1646;52.450;13.326;2023-09-12T19:55:59;4.47;;;2.87;;
3267;SDS011;1646;52.450;13.326;2023-09-12T20:00:59;3.33;;;2.70;;
3267;SDS011;1646;52.450;13.326;2023-09-12T20:06:03;3.90;;;3.10;;
3267;SDS011;1646;52.450;13.326;2023-09-12T20:11:06;7.63;;;3.33;;
3267;SDS011;1646;52.450;13.326;2023-09-12T20:16:09;4.00;;;2.70;;
3267;SDS011;1646;52.450;13.326;2023-09-12T20:21:11;3.50;;;3.20;;
3267;SDS011;1646;52.450;13.326;2023-09-12T20:26:10;5.10;;;3.00;;
3267;SDS011;1646;52.450;13.326;2023-09-12T20:31:10;10.03;;;3.37;;
3267;SDS011;1646;52.450;13.326;2023-09-12T20:36:08;2.80;;;2.60;;
3267;SDS011;1646;52.450;13.326;2023-09-12T20:41:07;4.27;;;3.23;;
3267;SDS011;1646;52.450;13.326;2023-09-12T20:46:05;5.40;;;2.90;;
3267;SDS011;1646;52.450;13.326;2023-09-12T20:51:10;3.30;;;2.97;;
3267;SDS011;1646;52.450;13.326;2023-09-12T20:56:08;4.43;;;3.13;;
3267;SDS011;1646;52.450;13.326;2023-09-12T21:01:10;4.33;;;3.17;;
3267;SDS011;1646;52.450;13.326;2023-09-12T21:06:10;7.67;;;5.00;;
3267;SDS011;1646;52.450;13.326;2023-09-12T21:11:09;5.20;;;3.10;;
3267;SDS011;1646;52.450;13.326;2023-09-12T21:16:07;5.30;;;3.30;;
3267;SDS011;1646;52.450;13.326;2023-09-12T21:21:06;4.87;;;3.50;;
3267;SDS011;1646;52.450;13.326;2023-09-12T21:26:05;4.10;;;3.67;;
3267;SDS011;1646;52.450;13.326;2023-09-12T21:31:04;9.17;;;3.63;;
3267;SDS011;1646;52.450;13.326;2023-09-12T21:36:03;4.30;;;3.20;;
3267;SDS011;1646;52.450;13.326;2023-09-12T21:41:02;6.50;;;4.00;;
3267;SDS011;1646;52.450;13.326;2023-09-12T21:46:01;5.73;;;4.13;;
3267;SDS011;1646;52.450;13.326;2023-09-12T21:51:00;4.53;;;4.10;;
3267;SDS011;1646;52.450;13.326;2023-09-12T21:55:59;4.03;;;3.63;;
3267;SDS011;1646;52.450;13.326;2023-09-12T22:00:57;5.50;;;3.60;;
3267;SDS011;1646;52.450;13.326;2023-09-12T22:05:58;3.80;;;3.40;;
3267;SDS011;1646;52.450;13.326;2023-09-12T22:10:56;4.90;;;4.17;;
3267;SDS011;1646;52.450;13.326;2023-09-12T22:15:55;4.73;;;3.50;;
3267;SDS011;1646;52.450;13.326;2023-09-12T22:20:53;5.50;;;4.23;;
3267;SDS011;1646;52.450;13.326;2023-09-12T22:25:53;10.40;;;4.40;;
3267;SDS011;1646;52.450;13.326;2023-09-12T22:30:53;4.63;;;3.93;;
3267;SDS011;1646;52.450;13.326;2023-09-12T22:35:52;4.73;;;4.20;;
3267;SDS011;1646;52.450;13.326;2023-09-12T22:41:09;4.53;;;3.87;;
3267;SDS011;1646;52.450;13.326;2023-09-12T22:46:08;8.20;;;4.67;;
3267;SDS011;1646;52.450;13.326;2023-09-12T22:51:06;4.43;;;4.03;;
3267;SDS011;1646;52.450;13.326;2023-09-12T22:56:04;6.53;;;3.90;;
3267;SDS011;1646;52.450;13.326;2023-09-12T23:01:04;5.50;;;3.93;;
3267;SDS011;1646;52.450;13.326;2023-09-12T23:06:04;6.47;;;4.17;;
3267;SDS011;1646;52.450;13.326;2023-09-12T23:11:02;13.33;;;4.60;;
3267;SDS011;1646;52.450;13.326;2023-09-12T23:16:01;5.37;;;4.20;;
3267;SDS011;1646;52.450;13.326;2023-09-12T23:21:01;4.83;;;4.17;;
3267;SDS011;1646;52.450;13.326;2023-09-12T23:25:59;6.60;;;4.63;;
3267;SDS011;1646;52.450;13.326;2023-09-12T23:30:58;4.63;;;4.03;;
3267;SDS011;1646;52.450;13.326;2023-09-12T23:35:57;8.27;;;4.43;;
3267;SDS011;1646;52.450;13.326;2023-09-12T23:40:56;7.40;;;4.70;;
3267;SDS011;1646;52.450;13.326;2023-09-12T23:45:55;5.43;;;4.60;;
3267;SDS011;1646;52.450;13.326;2023-09-12T23:50:54;9.17;;;5.13;;
3267;SDS011;1646;52.450;13.326;2023-09-12T23:55:58;8.07;;;6.13;;
